CheckWX is a tool to help pilots better visualize weather data.  It is not intended as a substitute for an official pre-flight weather briefing.

08:15:34 UTC

KGNB METAR
Granby-Grand County Airport
Granby, Colorado, USA
Current

31 mins ago

KGNB 220745Z AUTO 00000KT 10SM SCT120 M11/M17 A2967 RMK AO2 T11151169
Observed
Feb-22 @ 07:45 UTC
Visibility
10 SM
Flight Rules
VFR
Cloud Levels
  • Scattered at 12,000' AGL
Temperature
-12°C / 10°F
Dewpoint
-17°C / 1°F
Humidity
67%
Altimeter
29.67" Hg
Pressure
1004.72 hPa
Previous

46 mins ago

KGNB 220730Z AUTO 00000KT 10SM SCT120 M12/M17 A2967 RMK AO2 T11181168
Observed
Feb-22 @ 07:30 UTC
Visibility
10 SM
Flight Rules
VFR
Cloud Levels
  • Scattered at 12,000' AGL
Temperature
-12°C / 10°F
Dewpoint
-17°C / 1°F
Humidity
67%
Altimeter
29.67" Hg
Pressure
1004.72 hPa
Previous

1 hour ago

KGNB 220710Z AUTO 00000KT 10SM SCT120 M12/M17 A2967 RMK AO2 T11161169
Observed
Feb-22 @ 07:10 UTC
Visibility
10 SM
Flight Rules
VFR
Cloud Levels
  • Scattered at 12,000' AGL
Temperature
-12°C / 10°F
Dewpoint
-17°C / 1°F
Humidity
67%
Altimeter
29.67" Hg
Pressure
1004.72 hPa